createdAt,value
2023-05-07T00:02:39.072Z,16.70
2023-05-07T00:05:41.068Z,16.60
2023-05-07T00:08:43.043Z,16.40
2023-05-07T00:11:44.993Z,16.30
2023-05-07T00:14:47.168Z,16.30
2023-05-07T00:17:49.123Z,16.20
2023-05-07T00:20:51.196Z,16.20
2023-05-07T00:23:53.873Z,15.90
2023-05-07T00:26:55.850Z,15.90
2023-05-07T00:29:57.833Z,16.00
2023-05-07T00:32:59.991Z,16.00
2023-05-07T00:36:02.203Z,15.90
2023-05-07T00:39:04.281Z,16.10
2023-05-07T00:42:06.362Z,16.10
2023-05-07T00:45:08.800Z,15.90
2023-05-07T00:48:11.093Z,16.10
2023-05-07T00:51:13.639Z,16.20
2023-05-07T00:54:15.657Z,16.20
2023-05-07T00:57:20.192Z,16.00
2023-05-07T01:00:22.207Z,15.90
2023-05-07T01:03:24.270Z,15.90
2023-05-07T01:06:27.780Z,15.90
2023-05-07T01:09:30.546Z,15.90
2023-05-07T01:12:33.469Z,15.90
2023-05-07T01:15:35.638Z,15.80
2023-05-07T01:18:37.918Z,15.80
2023-05-07T01:21:45.747Z,15.90
2023-05-07T01:24:48.724Z,15.80
2023-05-07T01:27:52.167Z,15.80
2023-05-07T01:31:03.887Z,15.90
2023-05-07T01:34:09.794Z,15.80
2023-05-07T01:37:12.325Z,15.90
2023-05-07T01:40:15.033Z,15.80
2023-05-07T01:43:17.472Z,15.80
2023-05-07T01:46:22.582Z,15.70
2023-05-07T01:49:24.763Z,15.70
2023-05-07T01:52:29.735Z,15.70
2023-05-07T01:55:32.076Z,15.70
2023-05-07T01:58:34.624Z,15.60
2023-05-07T02:01:37.585Z,15.50
2023-05-07T02:04:39.603Z,15.60
2023-05-07T02:07:41.927Z,15.50
2023-05-07T02:10:44.214Z,15.40
2023-05-07T02:13:46.417Z,15.30
2023-05-07T02:16:48.600Z,15.30
2023-05-07T02:19:51.476Z,15.10
2023-05-07T02:22:53.495Z,15.20
2023-05-07T02:25:55.537Z,15.30
2023-05-07T02:28:57.715Z,15.30
2023-05-07T02:32:00.067Z,15.40
2023-05-07T02:35:02.532Z,15.40
2023-05-07T02:38:04.572Z,15.30
2023-05-07T02:41:08.339Z,15.30
2023-05-07T02:44:10.419Z,15.30
2023-05-07T02:47:15.573Z,15.40
2023-05-07T02:50:19.436Z,15.30
2023-05-07T02:53:21.672Z,15.20
2023-05-07T02:56:23.784Z,15.30
2023-05-07T02:59:26.189Z,15.20
2023-05-07T03:02:28.675Z,15.20
2023-05-07T03:05:30.775Z,15.20
2023-05-07T03:08:32.840Z,15.20
2023-05-07T03:11:35.111Z,15.30
2023-05-07T03:14:37.100Z,15.20
2023-05-07T03:17:39.458Z,15.20
2023-05-07T03:20:41.455Z,15.20
2023-05-07T03:23:43.767Z,15.10
2023-05-07T03:26:45.930Z,15.20
2023-05-07T03:29:48.149Z,15.10
2023-05-07T03:32:50.284Z,15.00
2023-05-07T03:35:52.517Z,15.00
2023-05-07T03:38:58.899Z,15.00
2023-05-07T03:42:12.153Z,15.10
2023-05-07T03:45:14.356Z,15.00
2023-05-07T03:48:21.848Z,15.00
2023-05-07T03:51:25.773Z,15.10
2023-05-07T03:54:28.883Z,15.20
2023-05-07T03:57:31.311Z,15.00
2023-05-07T04:00:35.247Z,14.90
2023-05-07T04:03:37.946Z,14.90
2023-05-07T04:06:43.504Z,14.90
2023-05-07T04:09:46.041Z,14.90
2023-05-07T04:12:48.171Z,14.90
2023-05-07T04:15:56.920Z,14.90
2023-05-07T04:19:00.093Z,14.90
2023-05-07T04:22:03.063Z,14.90
2023-05-07T04:25:06.083Z,14.90
2023-05-07T04:28:09.438Z,14.90
2023-05-07T04:31:11.803Z,15.00
2023-05-07T04:34:14.916Z,15.00
2023-05-07T04:37:17.996Z,15.00
2023-05-07T04:40:20.873Z,15.10
2023-05-07T04:43:25.828Z,15.10
2023-05-07T04:46:28.160Z,15.10
2023-05-07T04:49:33.104Z,15.30
2023-05-07T04:52:35.403Z,15.20
2023-05-07T04:55:37.825Z,15.40
2023-05-07T04:58:40.105Z,15.40
2023-05-07T05:01:42.840Z,15.40
2023-05-07T05:04:45.556Z,15.40
2023-05-07T05:07:47.848Z,15.40
2023-05-07T05:10:50.175Z,15.40
2023-05-07T05:13:52.365Z,15.40
2023-05-07T05:16:56.928Z,15.50
2023-05-07T05:19:59.638Z,15.60
2023-05-07T05:23:01.887Z,15.70
2023-05-07T05:26:06.723Z,15.70
2023-05-07T05:29:10.045Z,15.80
2023-05-07T05:32:15.731Z,15.70
2023-05-07T05:35:18.289Z,15.90
2023-05-07T05:38:20.532Z,16.00
2023-05-07T05:41:23.680Z,16.20
2023-05-07T05:44:26.514Z,16.20
2023-05-07T05:47:28.835Z,16.40
2023-05-07T05:50:32.172Z,16.70
2023-05-07T05:53:34.812Z,17.00
2023-05-07T05:56:38.516Z,17.10
2023-05-07T05:59:40.749Z,17.30
2023-05-07T06:02:44.314Z,17.40
2023-05-07T06:05:48.815Z,17.90
2023-05-07T06:08:51.861Z,18.20
2023-05-07T06:12:01.108Z,18.40
2023-05-07T06:15:06.062Z,18.90
2023-05-07T06:18:08.581Z,19.50
2023-05-07T06:21:11.564Z,19.90
2023-05-07T06:24:17.336Z,20.00
2023-05-07T06:27:19.442Z,20.20
2023-05-07T06:30:22.210Z,20.30
2023-05-07T06:33:24.565Z,20.50
2023-05-07T06:36:27.465Z,20.60
2023-05-07T06:39:33.253Z,20.80
2023-05-07T06:42:36.469Z,20.50
2023-05-07T06:45:57.255Z,20.50
2023-05-07T06:48:59.556Z,20.50
2023-05-07T06:52:03.031Z,20.40
2023-05-07T06:55:06.625Z,20.20
2023-05-07T06:58:08.941Z,20.40
2023-05-07T07:01:11.111Z,20.50
2023-05-07T07:04:13.892Z,21.00
2023-05-07T07:07:18.386Z,21.70
2023-05-07T07:10:23.724Z,22.70
2023-05-07T07:13:27.471Z,23.30
2023-05-07T07:16:29.882Z,23.80
2023-05-07T07:19:32.543Z,23.60
2023-05-07T07:22:35.978Z,23.80
2023-05-07T07:25:38.716Z,23.70
2023-05-07T07:28:45.672Z,24.40
2023-05-07T07:31:50.647Z,24.90
2023-05-07T07:34:54.137Z,25.40
2023-05-07T07:37:56.805Z,25.70
2023-05-07T07:40:59.159Z,25.30
2023-05-07T07:44:01.732Z,24.10
2023-05-07T07:47:04.088Z,23.90
2023-05-07T07:50:07.373Z,24.40
2023-05-07T07:53:09.699Z,25.10
2023-05-07T07:56:11.794Z,25.50
2023-05-07T07:59:13.965Z,25.20
2023-05-07T08:02:17.729Z,25.00
2023-05-07T08:05:20.117Z,25.20
2023-05-07T08:08:23.947Z,24.60
2023-05-07T08:11:27.634Z,25.00
2023-05-07T08:14:31.677Z,25.80
2023-05-07T08:17:33.991Z,26.90
2023-05-07T08:20:36.695Z,27.10
2023-05-07T08:23:39.774Z,27.80
2023-05-07T08:26:44.131Z,27.80
2023-05-07T08:29:46.987Z,28.00
2023-05-07T08:32:52.714Z,28.00
2023-05-07T08:35:55.204Z,28.50
2023-05-07T08:38:57.265Z,28.00
2023-05-07T08:42:02.013Z,26.60
2023-05-07T08:45:09.933Z,27.90
2023-05-07T08:48:22.031Z,28.20
2023-05-07T08:51:31.045Z,28.70
2023-05-07T08:54:34.923Z,29.00
2023-05-07T08:57:40.330Z,28.80
2023-05-07T09:00:44.354Z,29.00
2023-05-07T09:03:48.441Z,29.00
2023-05-07T09:06:51.695Z,28.90
2023-05-07T09:09:55.057Z,29.10
2023-05-07T09:12:57.362Z,29.00
2023-05-07T09:16:00.635Z,29.00
2023-05-07T09:19:03.205Z,29.20
2023-05-07T09:22:07.347Z,28.90
2023-05-07T09:25:32.744Z,29.40
2023-05-07T09:28:43.625Z,29.90
2023-05-07T09:31:48.592Z,30.00
2023-05-07T09:34:53.233Z,29.60
2023-05-07T09:38:03.652Z,29.80
2023-05-07T09:41:10.251Z,30.20
2023-05-07T09:44:39.741Z,30.20
2023-05-07T09:47:47.535Z,30.50
2023-05-07T09:50:56.108Z,30.40
2023-05-07T09:54:01.298Z,30.40
2023-05-07T09:57:05.465Z,30.60
2023-05-07T10:00:08.761Z,30.20
2023-05-07T10:03:25.250Z,29.90
2023-05-07T10:06:38.379Z,30.10
2023-05-07T10:09:42.195Z,30.20
2023-05-07T10:12:52.720Z,30.20
2023-05-07T10:16:07.084Z,30.10
2023-05-07T10:19:16.253Z,30.30
2023-05-07T10:22:22.681Z,30.30
2023-05-07T10:25:31.487Z,30.40
2023-05-07T10:28:42.566Z,30.30
2023-05-07T10:32:35.939Z,29.70
2023-05-07T10:35:44.396Z,30.20
2023-05-07T10:38:49.208Z,30.30
2023-05-07T10:41:52.487Z,29.70
2023-05-07T10:44:55.045Z,29.50
2023-05-07T11:03:26.312Z,29.20
2023-05-07T11:06:36.220Z,29.00
2023-05-07T11:09:53.356Z,28.80
2023-05-07T11:13:01.737Z,29.00
2023-05-07T11:16:20.655Z,29.60
2023-05-07T11:19:55.556Z,29.50
2023-05-07T11:23:35.585Z,29.00
2023-05-07T11:26:56.226Z,28.90
2023-05-07T11:30:01.384Z,28.90
2023-05-07T11:33:05.456Z,28.50
2023-05-07T11:36:09.992Z,28.50
2023-05-07T11:39:32.692Z,28.70
2023-05-07T11:42:39.658Z,28.90
2023-05-07T11:45:41.828Z,28.90
2023-05-07T11:48:47.029Z,28.70
2023-05-07T11:51:48.992Z,28.50
2023-05-07T11:54:52.142Z,28.80
2023-05-07T11:57:54.280Z,28.50
2023-05-07T12:00:56.455Z,28.20
2023-05-07T12:03:58.480Z,28.70
2023-05-07T12:07:00.700Z,28.90
2023-05-07T12:10:06.681Z,28.90
2023-05-07T12:13:25.753Z,28.90
2023-05-07T12:16:28.789Z,29.10
2023-05-07T12:19:32.059Z,28.50
2023-05-07T12:22:34.384Z,28.40
2023-05-07T12:25:40.568Z,28.40
2023-05-07T12:28:42.678Z,28.40
2023-05-07T12:31:45.027Z,28.10
2023-05-07T12:34:47.656Z,28.60
2023-05-07T12:38:00.205Z,28.50
2023-05-07T12:41:02.257Z,27.90
2023-05-07T12:44:06.131Z,27.90
2023-05-07T12:47:08.155Z,28.50
2023-05-07T12:50:10.422Z,28.50
2023-05-07T12:53:13.479Z,28.10
2023-05-07T12:56:17.113Z,28.10
2023-05-07T12:59:19.174Z,28.10
2023-05-07T13:02:21.336Z,28.00
2023-05-07T13:05:23.376Z,27.90
2023-05-07T13:08:33.625Z,27.90
2023-05-07T13:11:35.633Z,27.80
2023-05-07T13:14:37.586Z,28.00
2023-05-07T13:17:39.643Z,28.20
2023-05-07T13:20:41.691Z,28.00
2023-05-07T13:23:43.780Z,28.10
2023-05-07T13:26:46.336Z,28.20
2023-05-07T13:29:48.365Z,28.20
2023-05-07T13:32:50.506Z,28.20
2023-05-07T13:35:52.660Z,28.20
2023-05-07T13:38:54.673Z,28.20
2023-05-07T13:41:56.633Z,28.20
2023-05-07T13:44:58.601Z,28.30
2023-05-07T13:48:00.889Z,28.40
2023-05-07T13:51:03.597Z,28.40
2023-05-07T13:54:05.729Z,28.20
2023-05-07T13:57:07.829Z,28.00
2023-05-07T14:00:10.961Z,28.00
2023-05-07T14:03:22.071Z,27.70
2023-05-07T14:06:24.204Z,27.40
2023-05-07T14:09:26.834Z,27.10
2023-05-07T14:12:28.911Z,26.70
2023-05-07T14:15:30.967Z,26.50
2023-05-07T14:18:33.157Z,26.40
2023-05-07T14:21:35.215Z,26.10
2023-05-07T14:24:39.011Z,25.90
2023-05-07T14:27:41.291Z,25.70
2023-05-07T14:30:43.372Z,25.70
2023-05-07T14:33:45.379Z,25.50
2023-05-07T14:36:47.710Z,25.60
2023-05-07T14:39:52.184Z,25.50
2023-05-07T14:42:54.176Z,25.50
2023-05-07T14:45:56.193Z,25.30
2023-05-07T14:48:58.897Z,25.40
2023-05-07T14:52:01.009Z,25.10
2023-05-07T14:55:02.942Z,25.00
2023-05-07T14:58:05.426Z,24.90
2023-05-07T15:01:07.434Z,24.70
2023-05-07T15:04:10.104Z,24.70
2023-05-07T15:07:13.024Z,23.80
2023-05-07T15:10:15.212Z,23.50
2023-05-07T15:13:17.289Z,23.40
2023-05-07T15:16:19.887Z,23.00
2023-05-07T15:19:22.113Z,22.70
2023-05-07T15:22:24.189Z,22.30
2023-05-07T15:25:26.133Z,21.80
2023-05-07T15:28:28.456Z,21.70
2023-05-07T15:31:33.398Z,21.60
2023-05-07T15:34:35.600Z,21.50
2023-05-07T15:37:37.747Z,21.50
2023-05-07T15:40:40.241Z,21.90
2023-05-07T15:43:48.205Z,21.90
2023-05-07T15:46:50.324Z,21.80
2023-05-07T15:49:52.523Z,21.90
2023-05-07T15:52:54.606Z,22.00
2023-05-07T15:55:56.687Z,21.70
2023-05-07T15:58:58.840Z,21.40
2023-05-07T16:02:00.982Z,21.20
2023-05-07T16:05:03.656Z,21.30
2023-05-07T16:08:05.914Z,21.40
2023-05-07T16:11:08.048Z,21.30
2023-05-07T16:14:10.163Z,21.10
2023-05-07T16:17:12.352Z,21.40
2023-05-07T16:20:14.681Z,21.40
2023-05-07T16:23:16.845Z,21.20
2023-05-07T16:26:19.230Z,20.90
2023-05-07T16:29:21.929Z,20.90
2023-05-07T16:32:24.199Z,20.90
2023-05-07T16:35:26.228Z,20.90
2023-05-07T16:38:28.482Z,21.10
2023-05-07T16:41:30.620Z,21.00
2023-05-07T16:44:32.964Z,20.70
2023-05-07T16:47:35.185Z,20.70
2023-05-07T16:50:37.524Z,20.30
2023-05-07T16:53:39.898Z,20.10
2023-05-07T16:56:42.281Z,19.90
2023-05-07T16:59:44.406Z,19.40
2023-05-07T17:02:46.533Z,19.20
2023-05-07T17:05:52.197Z,19.00
2023-05-07T17:08:54.428Z,18.90
2023-05-07T17:11:56.539Z,18.80
2023-05-07T17:14:58.856Z,18.80
2023-05-07T17:18:01.414Z,18.50
2023-05-07T17:21:03.561Z,18.80
2023-05-07T17:24:06.301Z,18.90
2023-05-07T17:27:08.498Z,18.80
2023-05-07T17:30:11.254Z,18.90
2023-05-07T17:33:20.775Z,18.90
2023-05-07T17:36:24.183Z,18.80
2023-05-07T17:39:26.773Z,18.70
2023-05-07T17:42:30.120Z,18.60
2023-05-07T17:45:33.145Z,18.60
2023-05-07T17:48:35.311Z,18.60
2023-05-07T17:51:52.650Z,18.80
2023-05-07T17:54:56.521Z,18.70
2023-05-07T17:57:58.791Z,18.70
2023-05-07T18:01:00.983Z,18.70
2023-05-07T18:04:03.469Z,18.70
2023-05-07T18:07:05.636Z,18.60
2023-05-07T18:10:07.864Z,18.70
2023-05-07T18:13:10.022Z,18.70
2023-05-07T18:16:12.244Z,18.60
2023-05-07T18:19:14.608Z,18.60
2023-05-07T18:22:16.931Z,18.70
2023-05-07T18:25:20.438Z,18.70
2023-05-07T18:28:22.906Z,18.50
2023-05-07T18:31:25.325Z,18.70
2023-05-07T18:34:27.748Z,18.60
2023-05-07T18:37:30.159Z,18.50
2023-05-07T18:40:32.505Z,18.50
2023-05-07T18:43:34.780Z,18.50
2023-05-07T18:46:37.047Z,18.40
2023-05-07T18:49:39.316Z,18.50
2023-05-07T18:52:42.089Z,18.40
2023-05-07T18:55:44.411Z,18.50
2023-05-07T18:58:47.080Z,18.50
2023-05-07T19:01:49.374Z,18.40
2023-05-07T19:04:51.829Z,18.40
2023-05-07T19:07:54.263Z,18.50
2023-05-07T19:10:56.814Z,18.30
2023-05-07T19:13:58.946Z,18.30
2023-05-07T19:17:01.286Z,18.30
2023-05-07T19:20:04.126Z,18.30
2023-05-07T19:23:06.498Z,18.30
2023-05-07T19:26:09.777Z,18.30
2023-05-07T19:29:18.074Z,18.30
2023-05-07T19:32:20.682Z,18.30
2023-05-07T19:35:23.081Z,18.30
2023-05-07T19:38:26.741Z,18.30
2023-05-07T19:41:29.465Z,18.30
2023-05-07T19:44:31.758Z,18.20
2023-05-07T19:47:34.257Z,18.20
2023-05-07T19:50:36.432Z,18.20
2023-05-07T19:53:38.795Z,18.10
2023-05-07T19:56:41.072Z,18.00
2023-05-07T19:59:43.589Z,18.00
2023-05-07T20:02:45.783Z,18.00
2023-05-07T20:05:48.895Z,17.90
2023-05-07T20:08:51.094Z,18.00
2023-05-07T20:11:53.877Z,18.00
2023-05-07T20:14:56.083Z,18.00
2023-05-07T20:17:58.526Z,17.90
2023-05-07T20:21:01.124Z,18.00
2023-05-07T20:24:03.568Z,18.00
2023-05-07T20:27:06.321Z,18.00
2023-05-07T20:30:09.084Z,18.10
2023-05-07T20:33:11.543Z,18.10
2023-05-07T20:36:14.286Z,17.90
2023-05-07T20:39:16.815Z,17.90
2023-05-07T20:42:19.250Z,17.90
2023-05-07T20:45:21.842Z,17.80
2023-05-07T20:48:24.530Z,17.90
2023-05-07T20:51:26.684Z,17.70
2023-05-07T20:54:28.845Z,17.60
2023-05-07T20:57:31.056Z,17.70
2023-05-07T21:00:33.287Z,17.60
2023-05-07T21:03:35.440Z,17.70
2023-05-07T21:06:37.726Z,17.80
2023-05-07T21:09:39.986Z,17.80
2023-05-07T21:12:42.201Z,17.70
2023-05-07T21:15:44.554Z,17.70
2023-05-07T21:18:46.964Z,17.80
2023-05-07T21:21:49.418Z,17.90
2023-05-07T21:24:51.723Z,17.90
2023-05-07T21:27:53.773Z,17.90
2023-05-07T21:30:55.955Z,17.80
2023-05-07T21:33:58.118Z,17.80
2023-05-07T21:37:01.825Z,17.70
2023-05-07T21:40:05.300Z,17.90
2023-05-07T21:43:07.503Z,17.80
2023-05-07T21:46:10.420Z,17.70
2023-05-07T21:49:12.642Z,17.80
2023-05-07T21:52:15.970Z,17.80
2023-05-07T21:55:18.802Z,17.70
2023-05-07T21:58:20.982Z,17.70
2023-05-07T22:01:23.183Z,17.60
2023-05-07T22:04:25.714Z,17.70
2023-05-07T22:07:27.934Z,17.70
2023-05-07T22:10:30.663Z,17.50
2023-05-07T22:13:33.001Z,17.60
2023-05-07T22:16:35.161Z,17.60
2023-05-07T22:19:40.071Z,17.60
2023-05-07T22:22:54.954Z,17.40
2023-05-07T22:25:57.163Z,17.40
2023-05-07T22:28:59.298Z,17.40
2023-05-07T22:32:01.880Z,17.40
2023-05-07T22:35:05.197Z,17.30
2023-05-07T22:38:07.316Z,17.40
2023-05-07T22:41:09.496Z,17.40
2023-05-07T22:44:11.796Z,17.40
2023-05-07T22:47:13.962Z,17.40
2023-05-07T22:50:16.241Z,17.40
2023-05-07T22:53:19.559Z,17.40
2023-05-07T22:56:22.016Z,17.50
2023-05-07T22:59:24.282Z,17.50
2023-05-07T23:02:26.628Z,17.50
2023-05-07T23:05:29.132Z,17.40
2023-05-07T23:08:31.401Z,17.40
2023-05-07T23:11:33.390Z,17.40
2023-05-07T23:14:35.541Z,17.30
2023-05-07T23:17:37.759Z,17.40
2023-05-07T23:20:39.872Z,17.40
2023-05-07T23:23:42.185Z,17.40
2023-05-07T23:26:44.443Z,17.40
2023-05-07T23:29:47.105Z,17.30
2023-05-07T23:32:49.344Z,17.30
2023-05-07T23:35:59.974Z,17.30
2023-05-07T23:39:02.245Z,17.30
2023-05-07T23:42:04.391Z,17.30
2023-05-07T23:45:06.978Z,17.30
2023-05-07T23:48:09.465Z,17.20
2023-05-07T23:51:12.592Z,17.20
2023-05-07T23:54:15.063Z,17.30
2023-05-07T23:57:17.358Z,17.30
